sensor_id;sensor_type;location;lat;lon;timestamp;P1;durP1;ratioP1;P2;durP2;ratioP2
68608;SDS011;55581;46.718;7.690;2022-12-15T00:02:20;7.70;;;3.33;;
68608;SDS011;55581;46.718;7.690;2022-12-15T00:05:04;9.75;;;4.50;;
68608;SDS011;55581;46.718;7.690;2022-12-15T00:07:48;7.90;;;4.03;;
68608;SDS011;55581;46.718;7.690;2022-12-15T00:10:32;11.70;;;3.97;;
68608;SDS011;55581;46.718;7.690;2022-12-15T00:13:17;9.90;;;4.78;;
68608;SDS011;55581;46.718;7.690;2022-12-15T00:16:01;8.88;;;4.63;;
68608;SDS011;55581;46.718;7.690;2022-12-15T00:18:45;9.90;;;5.35;;
68608;SDS011;55581;46.718;7.690;2022-12-15T00:21:29;9.52;;;5.03;;
68608;SDS011;55581;46.718;7.690;2022-12-15T00:24:13;7.20;;;3.90;;
68608;SDS011;55581;46.718;7.690;2022-12-15T00:26:57;9.38;;;3.33;;
68608;SDS011;55581;46.718;7.690;2022-12-15T00:29:42;7.50;;;3.47;;
68608;SDS011;55581;46.718;7.690;2022-12-15T00:32:26;9.00;;;3.90;;
68608;SDS011;55581;46.718;7.690;2022-12-15T00:35:10;8.00;;;3.67;;
68608;SDS011;55581;46.718;7.690;2022-12-15T00:37:54;5.67;;;2.33;;
68608;SDS011;55581;46.718;7.690;2022-12-15T00:40:38;11.30;;;4.45;;
68608;SDS011;55581;46.718;7.690;2022-12-15T00:43:04;9.70;;;4.37;;
68608;SDS011;55581;46.718;7.690;2022-12-15T00:45:31;7.40;;;3.65;;
68608;SDS011;55581;46.718;7.690;2022-12-15T00:48:15;8.77;;;4.33;;
68608;SDS011;55581;46.718;7.690;2022-12-15T00:50:42;7.22;;;3.13;;
68608;SDS011;55581;46.718;7.690;2022-12-15T00:53:18;8.30;;;4.20;;
68608;SDS011;55581;46.718;7.690;2022-12-15T00:56:02;9.68;;;4.10;;
68608;SDS011;55581;46.718;7.690;2022-12-15T00:58:47;11.68;;;4.68;;
68608;SDS011;55581;46.718;7.690;2022-12-15T01:01:31;9.18;;;4.55;;
68608;SDS011;55581;46.718;7.690;2022-12-15T01:04:15;8.20;;;3.80;;
68608;SDS011;55581;46.718;7.690;2022-12-15T01:06:59;7.17;;;3.27;;
68608;SDS011;55581;46.718;7.690;2022-12-15T01:09:43;6.03;;;2.30;;
68608;SDS011;55581;46.718;7.690;2022-12-15T01:12:27;6.60;;;2.70;;
68608;SDS011;55581;46.718;7.690;2022-12-15T01:15:11;6.18;;;2.55;;
68608;SDS011;55581;46.718;7.690;2022-12-15T01:17:55;5.30;;;1.67;;
68608;SDS011;55581;46.718;7.690;2022-12-15T01:20:39;5.37;;;2.47;;
68608;SDS011;55581;46.718;7.690;2022-12-15T01:23:04;5.18;;;1.60;;
68608;SDS011;55581;46.718;7.690;2022-12-15T01:25:30;4.70;;;1.57;;
68608;SDS011;55581;46.718;7.690;2022-12-15T01:27:55;4.87;;;1.37;;
68608;SDS011;55581;46.718;7.690;2022-12-15T01:30:22;4.07;;;1.20;;
68608;SDS011;55581;46.718;7.690;2022-12-15T01:32:49;2.53;;;0.40;;
68608;SDS011;55581;46.718;7.690;2022-12-15T01:35:14;1.52;;;0.10;;
68608;SDS011;55581;46.718;7.690;2022-12-15T01:37:41;1.52;;;0.17;;
68608;SDS011;55581;46.718;7.690;2022-12-15T01:40:07;2.08;;;0.20;;
68608;SDS011;55581;46.718;7.690;2022-12-15T01:42:56;1.47;;;0.20;;
68608;SDS011;55581;46.718;7.690;2022-12-15T01:48:01;2.90;;;0.70;;
68608;SDS011;55581;46.718;7.690;2022-12-15T01:50:29;5.00;;;0.82;;
68608;SDS011;55581;46.718;7.690;2022-12-15T01:52:57;3.35;;;0.80;;
68608;SDS011;55581;46.718;7.690;2022-12-15T01:55:23;3.50;;;0.95;;
68608;SDS011;55581;46.718;7.690;2022-12-15T01:57:53;4.38;;;1.33;;
68608;SDS011;55581;46.718;7.690;2022-12-15T02:00:23;5.10;;;1.60;;
68608;SDS011;55581;46.718;7.690;2022-12-15T02:02:49;4.28;;;1.30;;
68608;SDS011;55581;46.718;7.690;2022-12-15T02:05:15;7.07;;;2.13;;
68608;SDS011;55581;46.718;7.690;2022-12-15T02:07:42;5.38;;;2.13;;
68608;SDS011;55581;46.718;7.690;2022-12-15T02:10:07;4.33;;;1.47;;
68608;SDS011;55581;46.718;7.690;2022-12-15T02:21:06;3.90;;;1.15;;
68608;SDS011;55581;46.718;7.690;2022-12-15T02:31:31;5.47;;;1.63;;
68608;SDS011;55581;46.718;7.690;2022-12-15T02:37:20;3.30;;;0.90;;
68608;SDS011;55581;46.718;7.690;2022-12-15T02:39:49;4.60;;;1.40;;
68608;SDS011;55581;46.718;7.690;2022-12-15T02:42:14;4.63;;;1.17;;
68608;SDS011;55581;46.718;7.690;2022-12-15T02:47:19;3.22;;;0.70;;
68608;SDS011;55581;46.718;7.690;2022-12-15T02:57:52;3.30;;;0.75;;
68608;SDS011;55581;46.718;7.690;2022-12-15T03:00:24;2.03;;;0.20;;
68608;SDS011;55581;46.718;7.690;2022-12-15T03:02:52;4.10;;;0.30;;
68608;SDS011;55581;46.718;7.690;2022-12-15T03:05:19;2.40;;;0.20;;
68608;SDS011;55581;46.718;7.690;2022-12-15T03:07:50;1.77;;;0.20;;
68608;SDS011;55581;46.718;7.690;2022-12-15T03:10:17;3.80;;;0.90;;
68608;SDS011;55581;46.718;7.690;2022-12-15T03:12:45;6.18;;;1.52;;
68608;SDS011;55581;46.718;7.690;2022-12-15T03:15:14;2.45;;;0.40;;
68608;SDS011;55581;46.718;7.690;2022-12-15T03:17:40;3.03;;;0.40;;
68608;SDS011;55581;46.718;7.690;2022-12-15T03:20:05;2.00;;;0.20;;
68608;SDS011;55581;46.718;7.690;2022-12-15T03:22:32;1.27;;;0.17;;
68608;SDS011;55581;46.718;7.690;2022-12-15T03:24:58;1.93;;;0.10;;
68608;SDS011;55581;46.718;7.690;2022-12-15T03:27:24;1.27;;;0.17;;
68608;SDS011;55581;46.718;7.690;2022-12-15T03:29:49;2.10;;;0.22;;
68608;SDS011;55581;46.718;7.690;2022-12-15T03:32:14;2.10;;;0.10;;
68608;SDS011;55581;46.718;7.690;2022-12-15T03:34:40;1.50;;;0.10;;
68608;SDS011;55581;46.718;7.690;2022-12-15T03:37:05;1.43;;;0.20;;
68608;SDS011;55581;46.718;7.690;2022-12-15T03:39:31;1.60;;;0.10;;
68608;SDS011;55581;46.718;7.690;2022-12-15T03:41:57;4.10;;;1.37;;
68608;SDS011;55581;46.718;7.690;2022-12-15T03:44:22;5.07;;;1.52;;
68608;SDS011;55581;46.718;7.690;2022-12-15T03:46:48;2.73;;;0.63;;
68608;SDS011;55581;46.718;7.690;2022-12-15T03:49:13;5.07;;;1.77;;
68608;SDS011;55581;46.718;7.690;2022-12-15T03:51:38;4.60;;;1.50;;
68608;SDS011;55581;46.718;7.690;2022-12-15T03:54:04;5.88;;;1.60;;
68608;SDS011;55581;46.718;7.690;2022-12-15T03:56:31;5.33;;;1.70;;
68608;SDS011;55581;46.718;7.690;2022-12-15T03:58:59;8.93;;;1.98;;
68608;SDS011;55581;46.718;7.690;2022-12-15T04:01:26;4.97;;;1.60;;
68608;SDS011;55581;46.718;7.690;2022-12-15T04:03:55;4.63;;;1.23;;
68608;SDS011;55581;46.718;7.690;2022-12-15T04:06:22;4.70;;;1.60;;
68608;SDS011;55581;46.718;7.690;2022-12-15T04:08:48;4.55;;;1.30;;
68608;SDS011;55581;46.718;7.690;2022-12-15T04:11:13;7.85;;;1.90;;
68608;SDS011;55581;46.718;7.690;2022-12-15T04:13:39;4.23;;;1.53;;
68608;SDS011;55581;46.718;7.690;2022-12-15T04:16:05;4.43;;;1.17;;
68608;SDS011;55581;46.718;7.690;2022-12-15T04:18:30;4.27;;;1.40;;
68608;SDS011;55581;46.718;7.690;2022-12-15T04:20:56;4.23;;;1.07;;
68608;SDS011;55581;46.718;7.690;2022-12-15T04:23:21;4.15;;;0.90;;
68608;SDS011;55581;46.718;7.690;2022-12-15T04:25:47;4.28;;;1.00;;
68608;SDS011;55581;46.718;7.690;2022-12-15T04:28:32;4.40;;;0.80;;
68608;SDS011;55581;46.718;7.690;2022-12-15T04:31:19;4.00;;;0.70;;
68608;SDS011;55581;46.718;7.690;2022-12-15T04:34:08;2.25;;;0.32;;
68608;SDS011;55581;46.718;7.690;2022-12-15T04:36:55;3.42;;;0.70;;
68608;SDS011;55581;46.718;7.690;2022-12-15T04:39:40;2.10;;;0.30;;
68608;SDS011;55581;46.718;7.690;2022-12-15T04:42:26;1.70;;;0.23;;
68608;SDS011;55581;46.718;7.690;2022-12-15T04:45:12;2.90;;;0.50;;
68608;SDS011;55581;46.718;7.690;2022-12-15T04:47:57;2.38;;;0.50;;
68608;SDS011;55581;46.718;7.690;2022-12-15T04:50:42;2.78;;;0.40;;
68608;SDS011;55581;46.718;7.690;2022-12-15T04:53:26;2.33;;;0.30;;
68608;SDS011;55581;46.718;7.690;2022-12-15T04:56:11;2.30;;;0.30;;
68608;SDS011;55581;46.718;7.690;2022-12-15T04:58:57;2.30;;;0.40;;
68608;SDS011;55581;46.718;7.690;2022-12-15T05:01:40;2.60;;;0.50;;
68608;SDS011;55581;46.718;7.690;2022-12-15T05:04:25;6.38;;;0.60;;
68608;SDS011;55581;46.718;7.690;2022-12-15T05:07:09;4.53;;;0.93;;
68608;SDS011;55581;46.718;7.690;2022-12-15T05:09:53;7.90;;;2.13;;
68608;SDS011;55581;46.718;7.690;2022-12-15T05:12:37;5.70;;;1.50;;
68608;SDS011;55581;46.718;7.690;2022-12-15T05:15:20;5.10;;;1.30;;
68608;SDS011;55581;46.718;7.690;2022-12-15T05:18:04;3.92;;;0.68;;
68608;SDS011;55581;46.718;7.690;2022-12-15T05:20:48;2.28;;;0.40;;
68608;SDS011;55581;46.718;7.690;2022-12-15T05:23:32;4.07;;;0.70;;
68608;SDS011;55581;46.718;7.690;2022-12-15T05:26:16;3.47;;;0.80;;
68608;SDS011;55581;46.718;7.690;2022-12-15T05:29:00;3.70;;;1.17;;
68608;SDS011;55581;46.718;7.690;2022-12-15T05:31:45;6.63;;;2.17;;
68608;SDS011;55581;46.718;7.690;2022-12-15T05:34:20;9.30;;;3.03;;
68608;SDS011;55581;46.718;7.690;2022-12-15T05:36:47;9.23;;;2.60;;
68608;SDS011;55581;46.718;7.690;2022-12-15T05:39:13;6.50;;;2.00;;
68608;SDS011;55581;46.718;7.690;2022-12-15T05:41:38;3.73;;;1.20;;
68608;SDS011;55581;46.718;7.690;2022-12-15T05:44:04;4.75;;;0.80;;
68608;SDS011;55581;46.718;7.690;2022-12-15T05:46:29;3.40;;;0.80;;
68608;SDS011;55581;46.718;7.690;2022-12-15T05:48:54;3.30;;;0.70;;
68608;SDS011;55581;46.718;7.690;2022-12-15T05:51:20;3.03;;;0.83;;
68608;SDS011;55581;46.718;7.690;2022-12-15T05:53:45;3.83;;;0.95;;
68608;SDS011;55581;46.718;7.690;2022-12-15T05:56:11;3.93;;;1.50;;
68608;SDS011;55581;46.718;7.690;2022-12-15T05:58:38;4.13;;;1.48;;
68608;SDS011;55581;46.718;7.690;2022-12-15T06:01:06;4.43;;;1.67;;
68608;SDS011;55581;46.718;7.690;2022-12-15T06:03:39;3.20;;;0.77;;
68608;SDS011;55581;46.718;7.690;2022-12-15T06:06:05;3.85;;;0.77;;
68608;SDS011;55581;46.718;7.690;2022-12-15T06:08:33;4.78;;;0.60;;
68608;SDS011;55581;46.718;7.690;2022-12-15T06:10:59;3.15;;;0.63;;
68608;SDS011;55581;46.718;7.690;2022-12-15T06:13:26;2.95;;;0.55;;
68608;SDS011;55581;46.718;7.690;2022-12-15T06:16:00;3.60;;;1.27;;
68608;SDS011;55581;46.718;7.690;2022-12-15T06:18:32;3.35;;;0.68;;
68608;SDS011;55581;46.718;7.690;2022-12-15T06:21:01;5.25;;;1.40;;
68608;SDS011;55581;46.718;7.690;2022-12-15T06:23:32;4.47;;;0.80;;
68608;SDS011;55581;46.718;7.690;2022-12-15T06:25:59;3.67;;;1.13;;
68608;SDS011;55581;46.718;7.690;2022-12-15T06:28:33;3.20;;;0.90;;
68608;SDS011;55581;46.718;7.690;2022-12-15T06:31:00;2.35;;;0.35;;
68608;SDS011;55581;46.718;7.690;2022-12-15T06:33:27;4.20;;;1.55;;
68608;SDS011;55581;46.718;7.690;2022-12-15T06:35:55;5.07;;;1.63;;
68608;SDS011;55581;46.718;7.690;2022-12-15T06:38:21;6.03;;;1.83;;
68608;SDS011;55581;46.718;7.690;2022-12-15T06:40:56;3.95;;;1.00;;
68608;SDS011;55581;46.718;7.690;2022-12-15T06:43:26;2.45;;;0.60;;
68608;SDS011;55581;46.718;7.690;2022-12-15T06:45:51;3.03;;;0.73;;
68608;SDS011;55581;46.718;7.690;2022-12-15T06:48:19;4.47;;;1.23;;
68608;SDS011;55581;46.718;7.690;2022-12-15T06:50:46;4.80;;;1.40;;
68608;SDS011;55581;46.718;7.690;2022-12-15T06:53:12;3.80;;;1.00;;
68608;SDS011;55581;46.718;7.690;2022-12-15T06:55:39;3.53;;;1.10;;
68608;SDS011;55581;46.718;7.690;2022-12-15T06:58:05;2.53;;;0.60;;
68608;SDS011;55581;46.718;7.690;2022-12-15T07:00:32;2.85;;;0.80;;
68608;SDS011;55581;46.718;7.690;2022-12-15T07:02:58;2.75;;;0.40;;
68608;SDS011;55581;46.718;7.690;2022-12-15T07:05:26;3.27;;;0.67;;
68608;SDS011;55581;46.718;7.690;2022-12-15T07:07:51;4.00;;;1.60;;
68608;SDS011;55581;46.718;7.690;2022-12-15T07:10:17;2.07;;;0.40;;
68608;SDS011;55581;46.718;7.690;2022-12-15T07:12:42;2.17;;;0.37;;
68608;SDS011;55581;46.718;7.690;2022-12-15T07:15:08;4.00;;;1.10;;
68608;SDS011;55581;46.718;7.690;2022-12-15T07:17:35;3.75;;;0.80;;
68608;SDS011;55581;46.718;7.690;2022-12-15T07:20:01;3.88;;;1.08;;
68608;SDS011;55581;46.718;7.690;2022-12-15T07:22:30;4.10;;;1.00;;
68608;SDS011;55581;46.718;7.690;2022-12-15T07:24:55;4.28;;;1.40;;
68608;SDS011;55581;46.718;7.690;2022-12-15T07:27:21;5.77;;;1.90;;
68608;SDS011;55581;46.718;7.690;2022-12-15T07:29:46;4.87;;;2.13;;
68608;SDS011;55581;46.718;7.690;2022-12-15T07:32:12;6.07;;;3.10;;
68608;SDS011;55581;46.718;7.690;2022-12-15T07:34:37;5.03;;;2.10;;
68608;SDS011;55581;46.718;7.690;2022-12-15T07:37:03;4.87;;;1.93;;
68608;SDS011;55581;46.718;7.690;2022-12-15T07:39:31;4.57;;;1.60;;
68608;SDS011;55581;46.718;7.690;2022-12-15T07:41:56;3.63;;;1.27;;
68608;SDS011;55581;46.718;7.690;2022-12-15T07:44:22;3.43;;;0.97;;
68608;SDS011;55581;46.718;7.690;2022-12-15T07:46:47;3.72;;;0.80;;
68608;SDS011;55581;46.718;7.690;2022-12-15T07:49:13;2.37;;;0.50;;
68608;SDS011;55581;46.718;7.690;2022-12-15T07:51:40;2.15;;;0.63;;
68608;SDS011;55581;46.718;7.690;2022-12-15T07:54:06;3.07;;;0.40;;
68608;SDS011;55581;46.718;7.690;2022-12-15T07:56:32;1.23;;;0.10;;
68608;SDS011;55581;46.718;7.690;2022-12-15T07:58:58;1.87;;;0.30;;
68608;SDS011;55581;46.718;7.690;2022-12-15T08:01:23;0.80;;;0.10;;
68608;SDS011;55581;46.718;7.690;2022-12-15T08:03:49;1.92;;;0.20;;
68608;SDS011;55581;46.718;7.690;2022-12-15T08:06:14;2.63;;;0.40;;
68608;SDS011;55581;46.718;7.690;2022-12-15T08:08:41;2.40;;;0.17;;
68608;SDS011;55581;46.718;7.690;2022-12-15T08:11:09;2.30;;;0.50;;
68608;SDS011;55581;46.718;7.690;2022-12-15T08:13:36;6.70;;;2.17;;
68608;SDS011;55581;46.718;7.690;2022-12-15T08:16:03;8.80;;;3.30;;
68608;SDS011;55581;46.718;7.690;2022-12-15T08:18:28;6.00;;;2.13;;
68608;SDS011;55581;46.718;7.690;2022-12-15T08:20:53;5.57;;;1.67;;
68608;SDS011;55581;46.718;7.690;2022-12-15T08:23:19;5.85;;;2.72;;
68608;SDS011;55581;46.718;7.690;2022-12-15T08:25:44;7.33;;;2.57;;
68608;SDS011;55581;46.718;7.690;2022-12-15T08:28:10;7.37;;;2.50;;
68608;SDS011;55581;46.718;7.690;2022-12-15T08:30:35;7.00;;;3.58;;
68608;SDS011;55581;46.718;7.690;2022-12-15T08:33:01;9.20;;;4.30;;
68608;SDS011;55581;46.718;7.690;2022-12-15T08:35:27;8.98;;;4.00;;
68608;SDS011;55581;46.718;7.690;2022-12-15T08:37:53;6.30;;;2.97;;
68608;SDS011;55581;46.718;7.690;2022-12-15T08:40:18;10.27;;;3.63;;
68608;SDS011;55581;46.718;7.690;2022-12-15T08:42:44;8.80;;;4.00;;
68608;SDS011;55581;46.718;7.690;2022-12-15T08:45:09;8.87;;;4.20;;
68608;SDS011;55581;46.718;7.690;2022-12-15T08:47:38;9.40;;;4.60;;
68608;SDS011;55581;46.718;7.690;2022-12-15T08:50:05;8.35;;;3.78;;
68608;SDS011;55581;46.718;7.690;2022-12-15T08:52:32;7.13;;;3.35;;
68608;SDS011;55581;46.718;7.690;2022-12-15T08:54:58;9.40;;;3.83;;
68608;SDS011;55581;46.718;7.690;2022-12-15T08:57:26;8.10;;;3.88;;
68608;SDS011;55581;46.718;7.690;2022-12-15T08:59:51;9.97;;;4.00;;
68608;SDS011;55581;46.718;7.690;2022-12-15T09:02:19;9.57;;;4.22;;
68608;SDS011;55581;46.718;7.690;2022-12-15T09:04:45;10.07;;;4.40;;
68608;SDS011;55581;46.718;7.690;2022-12-15T09:07:10;10.15;;;4.40;;
68608;SDS011;55581;46.718;7.690;2022-12-15T09:09:35;9.20;;;4.30;;
68608;SDS011;55581;46.718;7.690;2022-12-15T09:12:01;9.35;;;3.88;;
68608;SDS011;55581;46.718;7.690;2022-12-15T09:14:27;10.00;;;4.37;;
68608;SDS011;55581;46.718;7.690;2022-12-15T09:16:52;10.30;;;4.40;;
68608;SDS011;55581;46.718;7.690;2022-12-15T09:19:18;9.50;;;4.70;;
68608;SDS011;55581;46.718;7.690;2022-12-15T09:21:43;9.65;;;3.97;;
68608;SDS011;55581;46.718;7.690;2022-12-15T09:24:10;8.13;;;4.30;;
68608;SDS011;55581;46.718;7.690;2022-12-15T09:26:37;8.60;;;4.05;;
68608;SDS011;55581;46.718;7.690;2022-12-15T09:29:02;9.83;;;4.30;;
68608;SDS011;55581;46.718;7.690;2022-12-15T09:31:32;8.63;;;3.53;;
68608;SDS011;55581;46.718;7.690;2022-12-15T09:34:00;11.27;;;3.95;;
68608;SDS011;55581;46.718;7.690;2022-12-15T09:36:26;9.63;;;4.45;;
68608;SDS011;55581;46.718;7.690;2022-12-15T09:38:52;9.70;;;4.25;;
68608;SDS011;55581;46.718;7.690;2022-12-15T09:44:06;8.45;;;4.13;;
68608;SDS011;55581;46.718;7.690;2022-12-15T09:52:12;9.95;;;4.63;;
68608;SDS011;55581;46.718;7.690;2022-12-15T09:54:41;8.05;;;4.38;;
68608;SDS011;55581;46.718;7.690;2022-12-15T10:00:11;9.77;;;5.50;;
68608;SDS011;55581;46.718;7.690;2022-12-15T10:08:07;7.78;;;4.20;;
68608;SDS011;55581;46.718;7.690;2022-12-15T10:13:18;9.65;;;5.10;;
68608;SDS011;55581;46.718;7.690;2022-12-15T10:16:02;9.47;;;4.83;;
68608;SDS011;55581;46.718;7.690;2022-12-15T10:19:04;10.93;;;5.00;;
68608;SDS011;55581;46.718;7.690;2022-12-15T10:21:23;11.35;;;5.30;;
68608;SDS011;55581;46.718;7.690;2022-12-15T10:23:52;11.43;;;5.13;;
68608;SDS011;55581;46.718;7.690;2022-12-15T10:26:22;14.85;;;6.60;;
68608;SDS011;55581;46.718;7.690;2022-12-15T10:31:56;12.18;;;5.65;;
68608;SDS011;55581;46.718;7.690;2022-12-15T10:34:28;11.98;;;6.25;;
68608;SDS011;55581;46.718;7.690;2022-12-15T10:36:56;14.50;;;5.90;;
68608;SDS011;55581;46.718;7.690;2022-12-15T10:39:22;15.57;;;6.25;;
68608;SDS011;55581;46.718;7.690;2022-12-15T10:44:52;12.65;;;5.28;;
68608;SDS011;55581;46.718;7.690;2022-12-15T10:47:26;12.88;;;5.55;;
68608;SDS011;55581;46.718;7.690;2022-12-15T10:49:53;11.23;;;4.93;;
68608;SDS011;55581;46.718;7.690;2022-12-15T10:54:58;13.23;;;7.97;;
68608;SDS011;55581;46.718;7.690;2022-12-15T10:57:25;13.35;;;6.05;;
68608;SDS011;55581;46.718;7.690;2022-12-15T11:00:05;11.18;;;5.80;;
68608;SDS011;55581;46.718;7.690;2022-12-15T11:02:43;13.10;;;6.55;;
68608;SDS011;55581;46.718;7.690;2022-12-15T11:07:50;12.55;;;6.32;;
68608;SDS011;55581;46.718;7.690;2022-12-15T11:10:26;12.82;;;6.13;;
68608;SDS011;55581;46.718;7.690;2022-12-15T11:13:15;11.73;;;5.50;;
68608;SDS011;55581;46.718;7.690;2022-12-15T11:23:31;8.70;;;3.55;;
68608;SDS011;55581;46.718;7.690;2022-12-15T11:31:54;7.93;;;4.15;;
68608;SDS011;55581;46.718;7.690;2022-12-15T11:34:21;9.57;;;4.32;;
68608;SDS011;55581;46.718;7.690;2022-12-15T11:36:56;7.90;;;4.03;;
68608;SDS011;55581;46.718;7.690;2022-12-15T11:47:52;7.95;;;3.72;;
68608;SDS011;55581;46.718;7.690;2022-12-15T11:50:52;9.73;;;3.45;;
68608;SDS011;55581;46.718;7.690;2022-12-15T12:04:49;8.57;;;3.92;;
68608;SDS011;55581;46.718;7.690;2022-12-15T12:12:32;9.40;;;4.30;;
68608;SDS011;55581;46.718;7.690;2022-12-15T12:17:48;7.53;;;3.78;;
68608;SDS011;55581;46.718;7.690;2022-12-15T12:20:18;11.13;;;5.47;;
68608;SDS011;55581;46.718;7.690;2022-12-15T12:25:26;10.93;;;6.30;;
68608;SDS011;55581;46.718;7.690;2022-12-15T12:27:59;11.35;;;5.90;;
68608;SDS011;55581;46.718;7.690;2022-12-15T12:30:37;12.20;;;5.53;;
68608;SDS011;55581;46.718;7.690;2022-12-15T12:33:11;18.50;;;9.23;;
68608;SDS011;55581;46.718;7.690;2022-12-15T12:35:53;16.40;;;6.32;;
68608;SDS011;55581;46.718;7.690;2022-12-15T12:38:26;10.50;;;5.03;;
68608;SDS011;55581;46.718;7.690;2022-12-15T12:41:08;16.73;;;7.32;;
68608;SDS011;55581;46.718;7.690;2022-12-15T12:43:41;12.05;;;6.22;;
68608;SDS011;55581;46.718;7.690;2022-12-15T12:46:45;10.90;;;6.93;;
68608;SDS011;55581;46.718;7.690;2022-12-15T12:51:48;13.93;;;7.73;;
68608;SDS011;55581;46.718;7.690;2022-12-15T12:56:56;13.02;;;7.57;;
68608;SDS011;55581;46.718;7.690;2022-12-15T13:01:54;23.57;;;10.37;;
68608;SDS011;55581;46.718;7.690;2022-12-15T13:06:59;19.60;;;9.90;;
68608;SDS011;55581;46.718;7.690;2022-12-15T13:09:40;16.80;;;8.43;;
68608;SDS011;55581;46.718;7.690;2022-12-15T13:15:45;16.10;;;7.63;;
68608;SDS011;55581;46.718;7.690;2022-12-15T13:20:38;22.67;;;8.70;;
68608;SDS011;55581;46.718;7.690;2022-12-15T13:41:37;18.47;;;9.07;;
68608;SDS011;55581;46.718;7.690;2022-12-15T13:44:11;18.52;;;9.18;;
68608;SDS011;55581;46.718;7.690;2022-12-15T13:46:45;22.92;;;8.55;;
68608;SDS011;55581;46.718;7.690;2022-12-15T13:49:54;22.45;;;9.07;;
68608;SDS011;55581;46.718;7.690;2022-12-15T13:52:07;22.33;;;10.18;;
68608;SDS011;55581;46.718;7.690;2022-12-15T13:54:38;19.53;;;9.00;;
68608;SDS011;55581;46.718;7.690;2022-12-15T13:57:13;31.02;;;12.98;;
68608;SDS011;55581;46.718;7.690;2022-12-15T13:59:45;20.63;;;9.27;;
68608;SDS011;55581;46.718;7.690;2022-12-15T14:02:26;18.90;;;7.97;;
68608;SDS011;55581;46.718;7.690;2022-12-15T14:10:26;44.78;;;18.05;;
68608;SDS011;55581;46.718;7.690;2022-12-15T14:12:54;35.72;;;14.32;;
68608;SDS011;55581;46.718;7.690;2022-12-15T14:15:23;84.63;;;31.67;;
68608;SDS011;55581;46.718;7.690;2022-12-15T14:17:54;37.17;;;17.00;;
68608;SDS011;55581;46.718;7.690;2022-12-15T14:20:25;17.93;;;8.73;;
68608;SDS011;55581;46.718;7.690;2022-12-15T14:22:58;19.83;;;8.50;;
68608;SDS011;55581;46.718;7.690;2022-12-15T14:25:25;14.63;;;7.67;;
68608;SDS011;55581;46.718;7.690;2022-12-15T14:27:53;17.40;;;8.00;;
68608;SDS011;55581;46.718;7.690;2022-12-15T14:35:41;18.70;;;7.70;;
68608;SDS011;55581;46.718;7.690;2022-12-15T14:38:16;18.48;;;8.40;;
68608;SDS011;55581;46.718;7.690;2022-12-15T14:40:44;17.10;;;8.23;;
68608;SDS011;55581;46.718;7.690;2022-12-15T14:43:18;20.90;;;8.18;;
68608;SDS011;55581;46.718;7.690;2022-12-15T14:45:48;21.30;;;10.20;;
68608;SDS011;55581;46.718;7.690;2022-12-15T14:48:21;19.33;;;9.55;;
68608;SDS011;55581;46.718;7.690;2022-12-15T14:50:52;20.70;;;10.13;;
68608;SDS011;55581;46.718;7.690;2022-12-15T14:53:18;19.90;;;9.20;;
68608;SDS011;55581;46.718;7.690;2022-12-15T14:55:45;19.75;;;9.23;;
68608;SDS011;55581;46.718;7.690;2022-12-15T14:58:26;18.20;;;9.17;;
68608;SDS011;55581;46.718;7.690;2022-12-15T15:00:58;17.23;;;8.15;;
68608;SDS011;55581;46.718;7.690;2022-12-15T15:03:37;19.08;;;8.82;;
68608;SDS011;55581;46.718;7.690;2022-12-15T15:08:50;18.80;;;8.45;;
68608;SDS011;55581;46.718;7.690;2022-12-15T15:13:42;18.60;;;8.05;;
68608;SDS011;55581;46.718;7.690;2022-12-15T15:16:13;18.93;;;8.80;;
68608;SDS011;55581;46.718;7.690;2022-12-15T15:18:42;18.55;;;9.25;;
68608;SDS011;55581;46.718;7.690;2022-12-15T15:21:17;17.90;;;8.13;;
68608;SDS011;55581;46.718;7.690;2022-12-15T15:26:28;18.83;;;9.77;;
68608;SDS011;55581;46.718;7.690;2022-12-15T15:28:55;20.80;;;9.17;;
68608;SDS011;55581;46.718;7.690;2022-12-15T15:33:51;18.75;;;8.43;;
68608;SDS011;55581;46.718;7.690;2022-12-15T15:36:17;20.45;;;8.45;;
68608;SDS011;55581;46.718;7.690;2022-12-15T15:38:42;21.93;;;12.10;;
68608;SDS011;55581;46.718;7.690;2022-12-15T15:41:17;17.10;;;8.07;;
68608;SDS011;55581;46.718;7.690;2022-12-15T15:43:45;16.83;;;8.07;;
68608;SDS011;55581;46.718;7.690;2022-12-15T15:46:33;17.57;;;8.37;;
68608;SDS011;55581;46.718;7.690;2022-12-15T15:48:58;16.27;;;7.68;;
68608;SDS011;55581;46.718;7.690;2022-12-15T15:51:26;15.30;;;6.47;;
68608;SDS011;55581;46.718;7.690;2022-12-15T15:53:54;16.00;;;7.03;;
68608;SDS011;55581;46.718;7.690;2022-12-15T15:56:23;13.43;;;6.72;;
68608;SDS011;55581;46.718;7.690;2022-12-15T15:58:51;15.10;;;7.30;;
68608;SDS011;55581;46.718;7.690;2022-12-15T16:01:17;15.43;;;7.00;;
68608;SDS011;55581;46.718;7.690;2022-12-15T16:03:42;14.23;;;7.17;;
68608;SDS011;55581;46.718;7.690;2022-12-15T16:06:13;18.40;;;8.27;;
68608;SDS011;55581;46.718;7.690;2022-12-15T16:08:41;18.38;;;8.90;;
68608;SDS011;55581;46.718;7.690;2022-12-15T16:11:08;14.38;;;7.10;;
68608;SDS011;55581;46.718;7.690;2022-12-15T16:13:37;15.20;;;8.25;;
68608;SDS011;55581;46.718;7.690;2022-12-15T16:16:03;16.85;;;9.27;;
68608;SDS011;55581;46.718;7.690;2022-12-15T16:18:29;17.67;;;8.10;;
68608;SDS011;55581;46.718;7.690;2022-12-15T16:20:56;14.73;;;7.57;;
68608;SDS011;55581;46.718;7.690;2022-12-15T16:23:22;17.02;;;7.95;;
68608;SDS011;55581;46.718;7.690;2022-12-15T16:25:52;22.00;;;9.30;;
68608;SDS011;55581;46.718;7.690;2022-12-15T16:28:20;16.85;;;8.32;;
68608;SDS011;55581;46.718;7.690;2022-12-15T16:30:48;16.70;;;7.30;;
68608;SDS011;55581;46.718;7.690;2022-12-15T16:33:14;12.80;;;6.65;;
68608;SDS011;55581;46.718;7.690;2022-12-15T16:35:40;16.63;;;8.45;;
68608;SDS011;55581;46.718;7.690;2022-12-15T16:38:12;15.27;;;8.00;;
68608;SDS011;55581;46.718;7.690;2022-12-15T16:40:47;27.13;;;14.30;;
68608;SDS011;55581;46.718;7.690;2022-12-15T16:43:17;21.20;;;10.20;;
68608;SDS011;55581;46.718;7.690;2022-12-15T16:45:44;25.48;;;11.50;;
68608;SDS011;55581;46.718;7.690;2022-12-15T16:48:12;21.27;;;9.25;;
68608;SDS011;55581;46.718;7.690;2022-12-15T16:50:39;17.58;;;8.77;;
68608;SDS011;55581;46.718;7.690;2022-12-15T16:53:20;15.02;;;8.10;;
68608;SDS011;55581;46.718;7.690;2022-12-15T16:55:55;20.43;;;9.00;;
68608;SDS011;55581;46.718;7.690;2022-12-15T16:58:22;20.15;;;9.88;;
68608;SDS011;55581;46.718;7.690;2022-12-15T17:00:49;17.02;;;7.30;;
68608;SDS011;55581;46.718;7.690;2022-12-15T17:03:15;18.42;;;9.07;;
68608;SDS011;55581;46.718;7.690;2022-12-15T17:05:43;17.15;;;8.30;;
68608;SDS011;55581;46.718;7.690;2022-12-15T17:08:14;19.67;;;8.67;;
68608;SDS011;55581;46.718;7.690;2022-12-15T17:10:44;18.77;;;8.65;;
68608;SDS011;55581;46.718;7.690;2022-12-15T17:13:15;22.67;;;11.80;;
68608;SDS011;55581;46.718;7.690;2022-12-15T17:15:43;20.30;;;9.70;;
68608;SDS011;55581;46.718;7.690;2022-12-15T17:18:09;18.33;;;8.47;;
68608;SDS011;55581;46.718;7.690;2022-12-15T17:20:37;19.17;;;9.30;;
68608;SDS011;55581;46.718;7.690;2022-12-15T17:23:04;18.60;;;10.40;;
68608;SDS011;55581;46.718;7.690;2022-12-15T17:25:35;17.50;;;8.10;;
68608;SDS011;55581;46.718;7.690;2022-12-15T17:28:06;16.63;;;8.27;;
68608;SDS011;55581;46.718;7.690;2022-12-15T17:30:38;16.15;;;8.40;;
68608;SDS011;55581;46.718;7.690;2022-12-15T17:33:10;15.83;;;8.00;;
68608;SDS011;55581;46.718;7.690;2022-12-15T17:35:41;15.52;;;7.97;;
68608;SDS011;55581;46.718;7.690;2022-12-15T17:38:07;17.83;;;9.67;;
68608;SDS011;55581;46.718;7.690;2022-12-15T17:40:38;18.55;;;10.93;;
68608;SDS011;55581;46.718;7.690;2022-12-15T17:43:09;18.23;;;9.43;;
68608;SDS011;55581;46.718;7.690;2022-12-15T17:45:37;16.80;;;8.77;;
68608;SDS011;55581;46.718;7.690;2022-12-15T17:48:02;14.40;;;8.10;;
68608;SDS011;55581;46.718;7.690;2022-12-15T17:50:28;16.90;;;8.13;;